sensor_id;sensor_type;location;lat;lon;timestamp;pressure;altitude;pressure_sealevel;temperature;humidity
75414;BME280;64758;52.122;5.404;2023-04-24T00:02:17;100047.75;;;9.23;100.00
75414;BME280;64758;52.122;5.404;2023-04-24T00:04:43;100050.41;;;9.23;100.00
75414;BME280;64758;52.122;5.404;2023-04-24T00:07:11;100064.22;;;9.19;100.00
75414;BME280;64758;52.122;5.404;2023-04-24T00:09:39;100057.50;;;9.16;100.00
75414;BME280;64758;52.122;5.404;2023-04-24T00:12:06;100079.50;;;9.17;100.00
75414;BME280;64758;52.122;5.404;2023-04-24T00:14:32;100061.16;;;9.15;100.00
75414;BME280;64758;52.122;5.404;2023-04-24T00:16:59;100067.03;;;9.11;100.00
75414;BME280;64758;52.122;5.404;2023-04-24T00:19:25;100070.13;;;9.14;100.00
75414;BME280;64758;52.122;5.404;2023-04-24T00:21:52;100074.19;;;9.17;100.00
75414;BME280;64758;52.122;5.404;2023-04-24T00:24:18;100076.03;;;9.16;100.00
75414;BME280;64758;52.122;5.404;2023-04-24T00:26:45;100067.66;;;9.13;100.00
75414;BME280;64758;52.122;5.404;2023-04-24T00:29:11;100081.53;;;9.15;100.00
75414;BME280;64758;52.122;5.404;2023-04-24T00:31:38;100086.41;;;9.11;100.00
75414;BME280;64758;52.122;5.404;2023-04-24T00:34:04;100088.28;;;9.17;100.00
75414;BME280;64758;52.122;5.404;2023-04-24T00:36:31;100079.28;;;9.12;100.00
75414;BME280;64758;52.122;5.404;2023-04-24T00:38:58;100078.03;;;9.08;100.00
75414;BME280;64758;52.122;5.404;2023-04-24T00:41:25;100080.66;;;9.08;100.00
75414;BME280;64758;52.122;5.404;2023-04-24T00:43:52;100089.44;;;9.08;100.00
75414;BME280;64758;52.122;5.404;2023-04-24T00:46:19;100087.81;;;9.07;100.00
75414;BME280;64758;52.122;5.404;2023-04-24T00:48:46;100099.22;;;9.08;100.00
75414;BME280;64758;52.122;5.404;2023-04-24T00:51:12;100079.25;;;9.05;100.00
75414;BME280;64758;52.122;5.404;2023-04-24T00:53:39;100092.50;;;9.05;100.00
75414;BME280;64758;52.122;5.404;2023-04-24T00:56:05;100105.53;;;9.07;100.00
75414;BME280;64758;52.122;5.404;2023-04-24T00:58:32;100106.34;;;9.07;100.00
75414;BME280;64758;52.122;5.404;2023-04-24T01:00:59;100098.59;;;9.06;100.00
75414;BME280;64758;52.122;5.404;2023-04-24T01:03:29;100099.59;;;9.05;100.00
75414;BME280;64758;52.122;5.404;2023-04-24T01:05:58;100105.34;;;9.08;100.00
75414;BME280;64758;52.122;5.404;2023-04-24T01:08:26;100093.28;;;9.06;100.00
75414;BME280;64758;52.122;5.404;2023-04-24T01:10:53;100090.63;;;9.06;100.00
75414;BME280;64758;52.122;5.404;2023-04-24T01:13:20;100106.34;;;9.07;100.00
75414;BME280;64758;52.122;5.404;2023-04-24T01:15:47;100102.06;;;9.06;100.00
75414;BME280;64758;52.122;5.404;2023-04-24T01:18:14;100105.13;;;9.10;100.00
75414;BME280;64758;52.122;5.404;2023-04-24T01:20:42;100109.41;;;9.11;100.00
75414;BME280;64758;52.122;5.404;2023-04-24T01:23:10;100110.25;;;9.11;100.00
75414;BME280;64758;52.122;5.404;2023-04-24T01:25:37;100115.34;;;9.13;100.00
75414;BME280;64758;52.122;5.404;2023-04-24T01:28:03;100123.28;;;9.13;100.00
75414;BME280;64758;52.122;5.404;2023-04-24T01:30:30;100118.19;;;9.11;100.00
75414;BME280;64758;52.122;5.404;2023-04-24T01:32:58;100120.22;;;9.09;100.00
75414;BME280;64758;52.122;5.404;2023-04-24T01:35:25;100120.00;;;9.11;100.00
75414;BME280;64758;52.122;5.404;2023-04-24T01:37:52;100112.06;;;9.11;100.00
75414;BME280;64758;52.122;5.404;2023-04-24T01:40:18;100126.56;;;9.15;100.00
75414;BME280;64758;52.122;5.404;2023-04-24T01:42:45;100125.56;;;9.16;100.00
75414;BME280;64758;52.122;5.404;2023-04-24T01:45:12;100125.38;;;9.17;100.00
75414;BME280;64758;52.122;5.404;2023-04-24T01:47:39;100127.63;;;9.20;100.00
75414;BME280;64758;52.122;5.404;2023-04-24T01:50:06;100121.50;;;9.20;100.00
75414;BME280;64758;52.122;5.404;2023-04-24T01:52:33;100124.53;;;9.17;100.00
75414;BME280;64758;52.122;5.404;2023-04-24T01:55:02;100123.53;;;9.18;100.00
75414;BME280;64758;52.122;5.404;2023-04-24T01:57:33;100129.06;;;9.23;100.00
75414;BME280;64758;52.122;5.404;2023-04-24T02:00:00;100127.41;;;9.22;100.00
75414;BME280;64758;52.122;5.404;2023-04-24T02:02:26;100119.09;;;9.25;100.00
75414;BME280;64758;52.122;5.404;2023-04-24T02:04:56;100123.38;;;9.26;100.00
75414;BME280;64758;52.122;5.404;2023-04-24T02:07:23;100116.81;;;9.22;100.00
75414;BME280;64758;52.122;5.404;2023-04-24T02:09:49;100137.88;;;9.30;100.00
75414;BME280;64758;52.122;5.404;2023-04-24T02:12:16;100125.25;;;9.32;100.00
75414;BME280;64758;52.122;5.404;2023-04-24T02:14:44;100123.38;;;9.26;100.00
75414;BME280;64758;52.122;5.404;2023-04-24T02:17:10;100128.09;;;9.30;100.00
75414;BME280;64758;52.122;5.404;2023-04-24T02:19:39;100128.09;;;9.30;100.00
75414;BME280;64758;52.122;5.404;2023-04-24T02:22:06;100119.31;;;9.30;100.00
75414;BME280;64758;52.122;5.404;2023-04-24T02:24:32;100126.22;;;9.24;100.00
75414;BME280;64758;52.122;5.404;2023-04-24T02:26:59;100124.38;;;9.25;100.00
75414;BME280;64758;52.122;5.404;2023-04-24T02:29:26;100120.09;;;9.24;100.00
75414;BME280;64758;52.122;5.404;2023-04-24T02:31:52;100120.94;;;9.24;100.00
75414;BME280;64758;52.122;5.404;2023-04-24T02:34:19;100118.84;;;9.20;100.00
75414;BME280;64758;52.122;5.404;2023-04-24T02:36:45;100123.53;;;9.18;100.00
75414;BME280;64758;52.122;5.404;2023-04-24T02:39:12;100118.22;;;9.18;100.00
75414;BME280;64758;52.122;5.404;2023-04-24T02:41:39;100122.34;;;9.20;100.00
75414;BME280;64758;52.122;5.404;2023-04-24T02:44:06;100122.50;;;9.19;100.00
75414;BME280;64758;52.122;5.404;2023-04-24T02:46:32;100130.06;;;9.22;100.00
75414;BME280;64758;52.122;5.404;2023-04-24T02:48:59;100120.50;;;9.21;100.00
75414;BME280;64758;52.122;5.404;2023-04-24T02:51:25;100122.97;;;9.22;100.00
75414;BME280;64758;52.122;5.404;2023-04-24T02:53:53;100129.28;;;9.21;100.00
75414;BME280;64758;52.122;5.404;2023-04-24T02:56:19;100121.72;;;9.25;100.00
75414;BME280;64758;52.122;5.404;2023-04-24T02:58:46;100126.03;;;9.26;100.00
75414;BME280;64758;52.122;5.404;2023-04-24T03:01:12;100118.47;;;9.23;100.00
75414;BME280;64758;52.122;5.404;2023-04-24T03:03:39;100116.19;;;9.20;100.00
75414;BME280;64758;52.122;5.404;2023-04-24T03:06:06;100121.31;;;9.21;100.00
75414;BME280;64758;52.122;5.404;2023-04-24T03:08:34;100129.88;;;9.23;100.00
75414;BME280;64758;52.122;5.404;2023-04-24T03:11:01;100128.44;;;9.21;100.00
75414;BME280;64758;52.122;5.404;2023-04-24T03:13:27;100120.50;;;9.21;100.00
75414;BME280;64758;52.122;5.404;2023-04-24T03:15:54;100126.63;;;9.21;100.00
75414;BME280;64758;52.122;5.404;2023-04-24T03:18:20;100134.19;;;9.24;100.00
75414;BME280;64758;52.122;5.404;2023-04-24T03:20:47;100128.03;;;9.24;100.00
75414;BME280;64758;52.122;5.404;2023-04-24T03:23:13;100123.75;;;9.23;100.00
75414;BME280;64758;52.122;5.404;2023-04-24T03:25:40;100125.41;;;9.24;100.00
75414;BME280;64758;52.122;5.404;2023-04-24T03:28:09;100119.47;;;9.22;100.00
75414;BME280;64758;52.122;5.404;2023-04-24T03:30:35;100123.97;;;9.21;100.00
75414;BME280;64758;52.122;5.404;2023-04-24T03:33:02;100130.06;;;9.22;100.00
75414;BME280;64758;52.122;5.404;2023-04-24T03:35:29;100122.34;;;9.20;100.00
75414;BME280;64758;52.122;5.404;2023-04-24T03:37:55;100131.91;;;9.21;100.00
75414;BME280;64758;52.122;5.404;2023-04-24T03:40:21;100133.72;;;9.21;100.00
75414;BME280;64758;52.122;5.404;2023-04-24T03:42:48;100126.63;;;9.21;100.00
75414;BME280;64758;52.122;5.404;2023-04-24T03:45:14;100121.09;;;9.23;100.00
75414;BME280;64758;52.122;5.404;2023-04-24T03:47:41;100127.88;;;9.25;100.00
75414;BME280;64758;52.122;5.404;2023-04-24T03:50:08;100127.88;;;9.25;100.00
75414;BME280;64758;52.122;5.404;2023-04-24T03:52:38;100128.66;;;9.26;100.00
75414;BME280;64758;52.122;5.404;2023-04-24T03:55:05;100133.78;;;9.27;100.00
75414;BME280;64758;52.122;5.404;2023-04-24T03:57:32;100126.66;;;9.28;100.00
75414;BME280;64758;52.122;5.404;2023-04-24T03:59:59;100129.06;;;9.23;100.00
75414;BME280;64758;52.122;5.404;2023-04-24T04:02:26;100140.28;;;9.25;100.00
75414;BME280;64758;52.122;5.404;2023-04-24T04:04:52;100144.56;;;9.26;100.00
75414;BME280;64758;52.122;5.404;2023-04-24T04:07:19;100144.97;;;9.23;100.00
75414;BME280;64758;52.122;5.404;2023-04-24T04:09:46;100140.03;;;9.20;100.00
75414;BME280;64758;52.122;5.404;2023-04-24T04:12:12;100140.66;;;9.22;100.00
75414;BME280;64758;52.122;5.404;2023-04-24T04:14:39;100151.50;;;9.27;100.00
75414;BME280;64758;52.122;5.404;2023-04-24T04:17:06;100140.91;;;9.27;100.00
75414;BME280;64758;52.122;5.404;2023-04-24T04:19:32;100151.72;;;9.25;100.00
75414;BME280;64758;52.122;5.404;2023-04-24T04:21:59;100151.88;;;9.24;100.00
75414;BME280;64758;52.122;5.404;2023-04-24T04:24:25;100152.72;;;9.24;100.00
75414;BME280;64758;52.122;5.404;2023-04-24T04:26:52;100156.19;;;9.25;100.00
75414;BME280;64758;52.122;5.404;2023-04-24T04:29:22;100154.53;;;9.24;100.00
75414;BME280;64758;52.122;5.404;2023-04-24T04:31:50;100158.59;;;9.20;100.00
75414;BME280;64758;52.122;5.404;2023-04-24T04:34:16;100150.66;;;9.20;100.00
75414;BME280;64758;52.122;5.404;2023-04-24T04:36:43;100161.25;;;9.20;100.00
75414;BME280;64758;52.122;5.404;2023-04-24T04:39:10;100168.19;;;9.21;100.00
75414;BME280;64758;52.122;5.404;2023-04-24T04:41:37;100161.25;;;9.20;100.00
75414;BME280;64758;52.122;5.404;2023-04-24T04:44:04;100171.44;;;9.23;100.00
75414;BME280;64758;52.122;5.404;2023-04-24T04:46:31;100172.06;;;9.18;100.00
75414;BME280;64758;52.122;5.404;2023-04-24T04:49:00;100187.56;;;9.21;100.00
75414;BME280;64758;52.122;5.404;2023-04-24T04:51:27;100188.19;;;9.23;100.00
75414;BME280;64758;52.122;5.404;2023-04-24T04:53:54;100184.69;;;9.23;100.00
75414;BME280;64758;52.122;5.404;2023-04-24T04:56:20;100180.81;;;9.19;100.00
75414;BME280;64758;52.122;5.404;2023-04-24T04:58:48;100184.06;;;9.21;100.00
75414;BME280;64758;52.122;5.404;2023-04-24T05:01:14;100195.50;;;9.21;100.00
75414;BME280;64758;52.122;5.404;2023-04-24T05:03:41;100200.44;;;9.24;100.00
75414;BME280;64758;52.122;5.404;2023-04-24T05:06:07;100186.53;;;9.22;100.00
75414;BME280;64758;52.122;5.404;2023-04-24T05:08:34;100206.53;;;9.25;100.00
75414;BME280;64758;52.122;5.404;2023-04-24T05:11:00;100212.41;;;9.20;100.00
75414;BME280;64758;52.122;5.404;2023-04-24T05:13:27;100222.19;;;9.20;100.00
75414;BME280;64758;52.122;5.404;2023-04-24T05:16:05;100212.22;;;9.22;100.00
75414;BME280;64758;52.122;5.404;2023-04-24T05:18:32;100212.66;;;9.25;100.00
75414;BME280;64758;52.122;5.404;2023-04-24T05:20:58;100218.59;;;9.27;100.00
75414;BME280;64758;52.122;5.404;2023-04-24T05:23:25;100220.41;;;9.27;100.00
75414;BME280;64758;52.122;5.404;2023-04-24T05:25:51;100220.00;;;9.30;100.00
75414;BME280;64758;52.122;5.404;2023-04-24T05:28:18;100238.94;;;9.27;100.00
75414;BME280;64758;52.122;5.404;2023-04-24T05:30:44;100237.31;;;9.26;100.00
75414;BME280;64758;52.122;5.404;2023-04-24T05:33:11;100241.34;;;9.22;100.00
75414;BME280;64758;52.122;5.404;2023-04-24T05:35:37;100245.00;;;9.21;100.00
75414;BME280;64758;52.122;5.404;2023-04-24T05:38:04;100245.22;;;9.19;100.00
75414;BME280;64758;52.122;5.404;2023-04-24T05:40:31;100255.81;;;9.19;100.00
75414;BME280;64758;52.122;5.404;2023-04-24T05:42:57;100265.34;;;9.14;100.00
75414;BME280;64758;52.122;5.404;2023-04-24T05:45:24;100273.50;;;9.12;100.00
75414;BME280;64758;52.122;5.404;2023-04-24T05:47:50;100278.34;;;9.09;100.00
75414;BME280;64758;52.122;5.404;2023-04-24T05:50:19;100276.28;;;9.04;100.00
75414;BME280;64758;52.122;5.404;2023-04-24T05:52:46;100269.88;;;8.99;100.00
75414;BME280;64758;52.122;5.404;2023-04-24T05:55:12;100281.50;;;8.98;100.00
75414;BME280;64758;52.122;5.404;2023-04-24T05:57:39;100284.53;;;8.95;100.00
75414;BME280;64758;52.122;5.404;2023-04-24T06:00:06;100289.75;;;8.88;100.00
75414;BME280;64758;52.122;5.404;2023-04-24T06:02:34;100298.34;;;8.90;100.00
75414;BME280;64758;52.122;5.404;2023-04-24T06:05:01;100306.88;;;8.86;100.00
75414;BME280;64758;52.122;5.404;2023-04-24T06:07:28;100311.28;;;8.79;100.00
75414;BME280;64758;52.122;5.404;2023-04-24T06:09:55;100319.22;;;8.79;100.00
75414;BME280;64758;52.122;5.404;2023-04-24T06:12:22;100322.63;;;8.73;100.00
75414;BME280;64758;52.122;5.404;2023-04-24T06:14:48;100321.72;;;8.66;100.00
75414;BME280;64758;52.122;5.404;2023-04-24T06:17:15;100320.63;;;8.61;100.00
75414;BME280;64758;52.122;5.404;2023-04-24T06:19:42;100336.88;;;8.58;100.00
75414;BME280;64758;52.122;5.404;2023-04-24T06:22:09;100332.78;;;8.55;100.00
75414;BME280;64758;52.122;5.404;2023-04-24T06:24:36;100342.75;;;8.53;100.00
75414;BME280;64758;52.122;5.404;2023-04-24T06:27:03;100350.41;;;8.48;100.00
75414;BME280;64758;52.122;5.404;2023-04-24T06:29:29;100352.06;;;8.49;100.00
75414;BME280;64758;52.122;5.404;2023-04-24T06:31:56;100348.88;;;8.39;100.00
75414;BME280;64758;52.122;5.404;2023-04-24T06:34:22;100358.81;;;8.37;100.00
75414;BME280;64758;52.122;5.404;2023-04-24T06:36:49;100369.41;;;8.37;100.00
75414;BME280;64758;52.122;5.404;2023-04-24T06:39:15;100386.91;;;8.38;100.00
75414;BME280;64758;52.122;5.404;2023-04-24T06:41:42;100381.16;;;8.35;100.00
75414;BME280;64758;52.122;5.404;2023-04-24T06:44:08;100390.56;;;8.37;100.00
75414;BME280;64758;52.122;5.404;2023-04-24T06:46:35;100396.88;;;8.36;100.00
75414;BME280;64758;52.122;5.404;2023-04-24T06:49:02;100400.03;;;8.32;100.00
75414;BME280;64758;52.122;5.404;2023-04-24T06:51:29;100420.41;;;8.31;100.00
75414;BME280;64758;52.122;5.404;2023-04-24T06:53:55;100415.63;;;8.27;100.00
75414;BME280;64758;52.122;5.404;2023-04-24T06:56:22;100418.13;;;8.28;100.00
75414;BME280;64758;52.122;5.404;2023-04-24T06:58:49;100429.06;;;8.25;100.00
75414;BME280;64758;52.122;5.404;2023-04-24T07:01:15;100431.44;;;8.20;100.00
75414;BME280;64758;52.122;5.404;2023-04-24T07:03:42;100436.72;;;8.20;100.00
75414;BME280;64758;52.122;5.404;2023-04-24T07:06:09;100453.59;;;8.19;100.00
75414;BME280;64758;52.122;5.404;2023-04-24T07:08:37;100449.63;;;8.15;100.00
75414;BME280;64758;52.122;5.404;2023-04-24T07:11:04;100463.53;;;8.17;100.00
75414;BME280;64758;52.122;5.404;2023-04-24T07:13:30;100469.97;;;8.15;100.00
75414;BME280;64758;52.122;5.404;2023-04-24T07:15:57;100475.81;;;8.10;100.00
75414;BME280;64758;52.122;5.404;2023-04-24T07:18:24;100481.09;;;8.10;100.00
75414;BME280;64758;52.122;5.404;2023-04-24T07:20:50;100477.31;;;8.05;100.00
75414;BME280;64758;52.122;5.404;2023-04-24T07:23:17;100492.09;;;7.99;100.00
75414;BME280;64758;52.122;5.404;2023-04-24T07:25:44;100502.69;;;7.99;100.00
75414;BME280;64758;52.122;5.404;2023-04-24T07:28:10;100515.25;;;7.97;100.00
75414;BME280;64758;52.122;5.404;2023-04-24T07:30:37;100509.47;;;7.94;100.00
75414;BME280;64758;52.122;5.404;2023-04-24T07:33:03;100522.53;;;7.95;100.00
75414;BME280;64758;52.122;5.404;2023-04-24T07:35:30;100514.78;;;7.94;100.00
75414;BME280;64758;52.122;5.404;2023-04-24T07:37:57;100528.28;;;7.99;100.00
75414;BME280;64758;52.122;5.404;2023-04-24T07:40:23;100520.25;;;7.92;100.00
75414;BME280;64758;52.122;5.404;2023-04-24T07:42:50;100534.88;;;8.03;100.00
75414;BME280;64758;52.122;5.404;2023-04-24T07:45:17;100546.28;;;8.03;100.00
75414;BME280;64758;52.122;5.404;2023-04-24T07:47:43;100548.94;;;8.03;100.00
75414;BME280;64758;52.122;5.404;2023-04-24T07:50:12;100556.50;;;8.06;100.00
75414;BME280;64758;52.122;5.404;2023-04-24T07:52:39;100559.97;;;8.07;100.00
75414;BME280;64758;52.122;5.404;2023-04-24T07:55:06;100568.91;;;8.06;100.00
75414;BME280;64758;52.122;5.404;2023-04-24T07:57:33;100568.09;;;8.05;100.00
75414;BME280;64758;52.122;5.404;2023-04-24T08:00:00;100565.44;;;8.05;100.00
75414;BME280;64758;52.122;5.404;2023-04-24T08:02:26;100575.31;;;8.11;100.00
75414;BME280;64758;52.122;5.404;2023-04-24T08:04:53;100578.25;;;8.16;100.00
75414;BME280;64758;52.122;5.404;2023-04-24T08:07:21;100579.25;;;8.15;100.00
75414;BME280;64758;52.122;5.404;2023-04-24T08:09:47;100588.66;;;8.18;100.00
75414;BME280;64758;52.122;5.404;2023-04-24T08:12:14;100592.97;;;8.19;100.00
75414;BME280;64758;52.122;5.404;2023-04-24T08:14:41;100601.09;;;8.17;100.00
75414;BME280;64758;52.122;5.404;2023-04-24T08:17:08;100612.81;;;8.15;100.00
75414;BME280;64758;52.122;5.404;2023-04-24T08:19:34;100611.06;;;8.07;100.00
75414;BME280;64758;52.122;5.404;2023-04-24T08:22:01;100629.06;;;8.04;100.00
75414;BME280;64758;52.122;5.404;2023-04-24T08:24:28;100634.56;;;8.02;100.00
75414;BME280;64758;52.122;5.404;2023-04-24T08:26:55;100651.59;;;8.00;100.00
75414;BME280;64758;52.122;5.404;2023-04-24T08:29:24;100651.84;;;7.82;100.00
75414;BME280;64758;52.122;5.404;2023-04-24T08:31:51;100679.28;;;7.81;100.00
75414;BME280;64758;52.122;5.404;2023-04-24T08:34:17;100662.44;;;7.82;100.00
75414;BME280;64758;52.122;5.404;2023-04-24T08:36:44;100659.13;;;7.80;100.00
75414;BME280;64758;52.122;5.404;2023-04-24T08:39:13;100665.03;;;7.90;100.00
75414;BME280;64758;52.122;5.404;2023-04-24T08:41:42;100676.38;;;7.99;100.00
75414;BME280;64758;52.122;5.404;2023-04-24T08:44:12;100676.34;;;8.07;100.00
75414;BME280;64758;52.122;5.404;2023-04-24T08:46:45;100684.75;;;8.10;100.00
75414;BME280;64758;52.122;5.404;2023-04-24T08:49:14;100683.56;;;8.13;100.00
75414;BME280;64758;52.122;5.404;2023-04-24T08:51:44;100693.00;;;8.15;100.00
75414;BME280;64758;52.122;5.404;2023-04-24T08:54:13;100693.00;;;8.15;100.00
75414;BME280;64758;52.122;5.404;2023-04-24T08:56:43;100699.91;;;8.24;100.00
75414;BME280;64758;52.122;5.404;2023-04-24T08:59:10;100699.22;;;8.30;100.00
75414;BME280;64758;52.122;5.404;2023-04-24T09:01:37;100706.81;;;8.33;100.00
75414;BME280;64758;52.122;5.404;2023-04-24T09:04:08;100722.00;;;8.39;100.00
75414;BME280;64758;52.122;5.404;2023-04-24T09:06:37;100720.69;;;8.35;100.00
75414;BME280;64758;52.122;5.404;2023-04-24T09:09:03;100712.25;;;8.32;100.00
75414;BME280;64758;52.122;5.404;2023-04-24T09:11:31;100725.78;;;8.37;100.00
75414;BME280;64758;52.122;5.404;2023-04-24T09:13:59;100724.34;;;8.34;100.00
75414;BME280;64758;52.122;5.404;2023-04-24T09:16:26;100722.34;;;8.36;100.00
75414;BME280;64758;52.122;5.404;2023-04-24T09:18:53;100723.41;;;8.50;100.00
75414;BME280;64758;52.122;5.404;2023-04-24T09:21:22;100744.59;;;8.72;100.00
75414;BME280;64758;52.122;5.404;2023-04-24T09:24:04;100737.41;;;8.81;100.00
75414;BME280;64758;52.122;5.404;2023-04-24T09:26:34;100749.22;;;8.92;100.00
75414;BME280;64758;52.122;5.404;2023-04-24T09:29:01;100751.28;;;9.05;100.00
75414;BME280;64758;52.122;5.404;2023-04-24T09:31:28;100743.59;;;9.10;100.00
75414;BME280;64758;52.122;5.404;2023-04-24T09:36:33;100747.13;;;9.25;100.00
75414;BME280;64758;52.122;5.404;2023-04-24T09:39:01;100758.28;;;9.35;100.00
75414;BME280;64758;52.122;5.404;2023-04-24T09:41:28;100762.78;;;9.49;100.00
75414;BME280;64758;52.122;5.404;2023-04-24T09:43:55;100755.88;;;9.62;100.00
75414;BME280;64758;52.122;5.404;2023-04-24T09:46:29;100763.44;;;9.80;100.00
75414;BME280;64758;52.122;5.404;2023-04-24T09:49:08;100778.00;;;9.69;99.89
75414;BME280;64758;52.122;5.404;2023-04-24T09:51:36;100771.13;;;9.60;100.00
75414;BME280;64758;52.122;5.404;2023-04-24T09:54:04;100794.69;;;9.41;96.69
75414;BME280;64758;52.122;5.404;2023-04-24T09:56:42;100797.53;;;9.17;96.61
75414;BME280;64758;52.122;5.404;2023-04-24T09:59:08;100795.31;;;9.06;97.45
75414;BME280;64758;52.122;5.404;2023-04-24T10:01:35;100796.50;;;9.03;96.28
75414;BME280;64758;52.122;5.404;2023-04-24T10:04:02;100795.31;;;9.06;94.14
75414;BME280;64758;52.122;5.404;2023-04-24T10:06:35;100805.03;;;9.13;94.91
75414;BME280;64758;52.122;5.404;2023-04-24T10:09:02;100808.63;;;9.20;93.64
75414;BME280;64758;52.122;5.404;2023-04-24T10:11:30;100801.78;;;9.26;93.94
75414;BME280;64758;52.122;5.404;2023-04-24T10:13:57;100802.47;;;9.42;91.61
75414;BME280;64758;52.122;5.404;2023-04-24T10:16:24;100802.19;;;9.52;91.64
75414;BME280;64758;52.122;5.404;2023-04-24T10:18:51;100810.16;;;9.52;90.97
75414;BME280;64758;52.122;5.404;2023-04-24T10:21:17;100824.25;;;9.52;90.87
75414;BME280;64758;52.122;5.404;2023-04-24T10:23:44;100818.94;;;9.52;90.87
75414;BME280;64758;52.122;5.404;2023-04-24T10:26:13;100824.69;;;9.41;91.32
75414;BME280;64758;52.122;5.404;2023-04-24T10:28:45;100823.91;;;9.33;91.59
75414;BME280;64758;52.122;5.404;2023-04-24T10:31:13;100833.78;;;9.39;90.52
75414;BME280;64758;52.122;5.404;2023-04-24T10:33:43;100838.31;;;9.53;89.57
75414;BME280;64758;52.122;5.404;2023-04-24T10:36:10;100834.94;;;9.59;89.35
75414;BME280;64758;52.122;5.404;2023-04-24T10:38:40;100838.34;;;9.67;90.02
75414;BME280;64758;52.122;5.404;2023-04-24T10:41:12;100836.28;;;9.77;88.32
75414;BME280;64758;52.122;5.404;2023-04-24T10:43:46;100833.19;;;9.88;86.19
75414;BME280;64758;52.122;5.404;2023-04-24T10:46:20;100839.34;;;10.03;86.74
75414;BME280;64758;52.122;5.404;2023-04-24T10:48:53;100846.22;;;10.12;88.08
75414;BME280;64758;52.122;5.404;2023-04-24T10:51:26;100851.47;;;9.98;86.75
75414;BME280;64758;52.122;5.404;2023-04-24T10:54:44;100862.78;;;9.77;87.54
75414;BME280;64758;52.122;5.404;2023-04-24T10:59:44;100852.25;;;9.69;88.09
75414;BME280;64758;52.122;5.404;2023-04-24T11:02:14;100853.78;;;9.64;85.77
75414;BME280;64758;52.122;5.404;2023-04-24T11:04:41;100863.66;;;9.55;87.34
75414;BME280;64758;52.122;5.404;2023-04-24T11:07:11;100862.47;;;9.58;88.23
75414;BME280;64758;52.122;5.404;2023-04-24T11:09:38;100856.72;;;9.54;88.55
75414;BME280;64758;52.122;5.404;2023-04-24T11:12:09;100866.66;;;9.52;87.45
75414;BME280;64758;52.122;5.404;2023-04-24T11:20:01;100895.31;;;9.34;90.47
75414;BME280;64758;52.122;5.404;2023-04-24T11:22:41;100900.94;;;9.09;92.82
75414;BME280;64758;52.122;5.404;2023-04-24T11:25:09;100903.41;;;8.88;95.01
75414;BME280;64758;52.122;5.404;2023-04-24T11:27:40;100900.56;;;8.89;95.58
75414;BME280;64758;52.122;5.404;2023-04-24T11:30:07;100903.50;;;8.94;96.73
75414;BME280;64758;52.122;5.404;2023-04-24T11:32:35;100901.88;;;9.16;97.72
75414;BME280;64758;52.122;5.404;2023-04-24T11:35:19;100907.91;;;9.32;98.61
75414;BME280;64758;52.122;5.404;2023-04-24T11:37:49;100907.19;;;9.61;98.60
75414;BME280;64758;52.122;5.404;2023-04-24T11:40:36;100904.31;;;9.85;97.56
75414;BME280;64758;52.122;5.404;2023-04-24T11:43:03;100898.50;;;9.89;94.49
75414;BME280;64758;52.122;5.404;2023-04-24T11:45:33;100902.59;;;9.92;94.38
75414;BME280;64758;52.122;5.404;2023-04-24T11:48:00;100903.97;;;10.10;90.78
75414;BME280;64758;52.122;5.404;2023-04-24T11:50:27;100906.06;;;10.14;88.99
75414;BME280;64758;52.122;5.404;2023-04-24T11:52:55;100918.16;;;10.31;89.50
75414;BME280;64758;52.122;5.404;2023-04-24T11:57:57;100920.53;;;10.55;86.66
75414;BME280;64758;52.122;5.404;2023-04-24T12:00:26;100915.78;;;10.36;84.73
75414;BME280;64758;52.122;5.404;2023-04-24T12:03:12;100935.91;;;10.45;85.18
75414;BME280;64758;52.122;5.404;2023-04-24T12:05:39;100942.78;;;10.54;85.37
75414;BME280;64758;52.122;5.404;2023-04-24T12:08:07;100931.53;;;10.52;83.73
75414;BME280;64758;52.122;5.404;2023-04-24T12:10:35;100936.94;;;10.44;83.67
75414;BME280;64758;52.122;5.404;2023-04-24T12:13:02;100944.22;;;10.28;83.77
75414;BME280;64758;52.122;5.404;2023-04-24T12:15:29;100947.00;;;10.20;84.72
75414;BME280;64758;52.122;5.404;2023-04-24T12:17:56;100961.72;;;10.22;83.79
75414;BME280;64758;52.122;5.404;2023-04-24T12:20:28;100953.84;;;10.29;84.46
75414;BME280;64758;52.122;5.404;2023-04-24T12:22:56;100950.66;;;10.33;82.72
75414;BME280;64758;52.122;5.404;2023-04-24T12:25:27;100970.69;;;10.21;82.15
75414;BME280;64758;52.122;5.404;2023-04-24T12:28:08;100968.09;;;10.13;82.96
75414;BME280;64758;52.122;5.404;2023-04-24T12:30:48;100967.59;;;10.18;82.64
75414;BME280;64758;52.122;5.404;2023-04-24T12:33:19;100955.03;;;10.41;82.61
75414;BME280;64758;52.122;5.404;2023-04-24T12:35:47;100964.56;;;10.79;82.33
75414;BME280;64758;52.122;5.404;2023-04-24T12:38:15;100963.94;;;10.91;80.80
75414;BME280;64758;52.122;5.404;2023-04-24T12:40:42;100974.13;;;10.73;77.94
75414;BME280;64758;52.122;5.404;2023-04-24T12:43:18;100971.38;;;10.52;80.22
75414;BME280;64758;52.122;5.404;2023-04-24T12:45:46;100982.34;;;10.49;79.26
75414;BME280;64758;52.122;5.404;2023-04-24T12:48:13;100984.03;;;10.28;78.21
75414;BME280;64758;52.122;5.404;2023-04-24T12:50:43;101002.25;;;10.16;79.15
75414;BME280;64758;52.122;5.404;2023-04-24T12:53:13;100996.06;;;10.02;79.16
75414;BME280;64758;52.122;5.404;2023-04-24T12:55:39;100994.44;;;10.01;79.51
75414;BME280;64758;52.122;5.404;2023-04-24T12:58:07;100991.44;;;9.96;79.91
75414;BME280;64758;52.122;5.404;2023-04-24T13:00:33;100995.47;;;9.92;79.63
75414;BME280;64758;52.122;5.404;2023-04-24T13:03:00;101006.78;;;9.86;80.01
75414;BME280;64758;52.122;5.404;2023-04-24T13:05:27;101012.41;;;9.68;81.45
75414;BME280;64758;52.122;5.404;2023-04-24T13:07:54;101019.56;;;9.60;80.75
75414;BME280;64758;52.122;5.404;2023-04-24T13:10:20;101013.66;;;9.50;83.34